Time;durP1;ratioP1;P1;durP2;ratioP2;P2;SDS_P1;SDS_P2;PMS_P1;PMS_P2;Temp;Humidity;BMP_temperature;BMP_pressure;BME280_temperature;BME280_humidity;BME280_pressure;Samples;Min_cycle;Max_cycle;Signal;HPM_P1;HPM_P2
2023/08/01 00:00:45;;;;;;;5.97;2.70;;;18.80;99.90;;;;;;7288725;19;20196;-78
2023/08/01 00:03:11;;;;;;;5.83;2.60;;;18.80;99.90;;;;;;7287134;19;20201;-79
2023/08/01 00:05:38;;;;;;;7.00;2.40;;;18.80;99.90;;;;;;7302678;19;20222;-77
2023/08/01 00:08:04;;;;;;;7.20;2.70;;;18.70;99.90;;;;;;7308912;19;20212;-78
2023/08/01 00:10:29;;;;;;;6.70;2.83;;;18.70;99.90;;;;;;7285803;19;20188;-78
2023/08/01 00:12:55;;;;;;;8.33;2.80;;;18.60;99.90;;;;;;7288834;19;20213;-78
2023/08/01 00:15:21;;;;;;;8.97;2.63;;;18.60;99.90;;;;;;7286968;19;20203;-78
2023/08/01 00:17:46;;;;;;;5.83;2.10;;;18.60;99.90;;;;;;7284419;19;20576;-78
2023/08/01 00:20:12;;;;;;;6.87;2.20;;;18.60;99.90;;;;;;7288492;19;20221;-77
2023/08/01 00:22:38;;;;;;;8.20;2.30;;;18.60;99.90;;;;;;7289133;19;20190;-78
2023/08/01 00:25:04;;;;;;;7.73;2.40;;;18.60;99.90;;;;;;7308504;19;20206;-78
2023/08/01 00:27:32;;;;;;;6.00;2.30;;;18.60;99.90;;;;;;7285330;19;20214;-78
2023/08/01 00:29:57;;;;;;;4.40;1.90;;;18.50;99.90;;;;;;7285254;19;20315;-78
2023/08/01 00:32:23;;;;;;;5.37;2.27;;;18.50;99.90;;;;;;7288196;19;20197;-79
2023/08/01 00:34:51;;;;;;;8.60;2.37;;;18.60;99.90;;;;;;7285853;19;20189;-78
2023/08/01 00:37:17;;;;;;;7.63;2.20;;;18.60;99.90;;;;;;7284895;19;20218;-79
2023/08/01 00:39:43;;;;;;;5.27;2.13;;;18.60;99.90;;;;;;7285426;19;20260;-78
2023/08/01 00:42:08;;;;;;;7.30;2.10;;;18.60;99.90;;;;;;7287291;19;20188;-78
2023/08/01 00:44:34;;;;;;;11.77;2.23;;;18.50;99.90;;;;;;7309087;19;20189;-79
2023/08/01 00:47:00;;;;;;;7.07;2.20;;;18.50;99.90;;;;;;7286383;19;20209;-78
2023/08/01 00:49:26;;;;;;;6.23;2.17;;;18.40;99.90;;;;;;7287144;19;20557;-78
2023/08/01 00:51:52;;;;;;;7.23;2.40;;;18.40;99.90;;;;;;7286701;19;20189;-78
2023/08/01 00:54:18;;;;;;;6.97;2.40;;;18.40;99.90;;;;;;7286803;19;20189;-78
2023/08/01 00:56:44;;;;;;;8.70;2.33;;;18.20;99.90;;;;;;7282585;19;20216;-78
2023/08/01 00:59:11;;;;;;;6.10;2.00;;;18.20;99.90;;;;;;7285209;19;20181;-78
2023/08/01 01:01:37;;;;;;;7.93;2.30;;;18.20;99.90;;;;;;7298510;19;20838;-78
2023/08/01 01:04:03;;;;;;;7.83;2.27;;;18.30;99.90;;;;;;7300686;19;20196;-78
2023/08/01 01:06:49;;;;;;;8.63;2.70;;;18.30;99.90;;;;;;7286765;19;20312;-78
2023/08/01 01:09:16;;;;;;;6.83;2.30;;;18.20;99.90;;;;;;7182740;19;2004808;-78
2023/08/01 01:11:43;;;;;;;6.07;2.40;;;18.30;99.90;;;;;;7284323;19;20314;-77
2023/08/01 01:14:08;;;;;;;8.73;2.57;;;18.40;99.90;;;;;;7286454;19;20189;-77
2023/08/01 01:16:34;;;;;;;7.63;2.53;;;18.40;99.90;;;;;;7306508;19;21002;-78
2023/08/01 01:19:00;;;;;;;7.57;2.60;;;18.20;99.90;;;;;;7284639;19;20197;-78
2023/08/01 01:21:25;;;;;;;7.77;2.43;;;18.20;99.90;;;;;;7284895;19;20195;-78
2023/08/01 01:23:52;;;;;;;9.03;3.00;;;18.20;99.90;;;;;;7285084;19;20199;-78
2023/08/01 01:26:21;;;;;;;7.63;2.90;;;18.10;99.90;;;;;;7285623;19;20660;-78
2023/08/01 01:28:49;;;;;;;7.67;2.70;;;18.10;99.90;;;;;;7283745;19;20554;-78
2023/08/01 01:31:15;;;;;;;9.00;2.83;;;18.10;99.90;;;;;;7284057;19;20259;-78
2023/08/01 01:33:42;;;;;;;10.67;3.47;;;18.10;99.90;;;;;;7284060;19;20189;-78
2023/08/01 01:36:08;;;;;;;7.80;3.13;;;18.10;99.90;;;;;;7288529;19;20185;-77
2023/08/01 01:38:34;;;;;;;10.80;3.00;;;18.10;99.90;;;;;;7305627;19;20188;-78
2023/08/01 01:41:00;;;;;;;14.50;3.30;;;18.20;99.90;;;;;;7282364;19;20744;-78
2023/08/01 01:43:25;;;;;;;8.70;3.00;;;18.10;99.90;;;;;;7283126;19;20185;-78
2023/08/01 01:45:51;;;;;;;13.27;3.80;;;18.20;99.90;;;;;;7284062;19;20196;-78
2023/08/01 01:48:17;;;;;;;8.97;3.20;;;18.20;99.90;;;;;;7284457;19;20188;-78
2023/08/01 01:50:43;;;;;;;6.63;2.97;;;18.20;99.90;;;;;;7283540;19;20287;-78
2023/08/01 01:53:08;;;;;;;13.20;4.03;;;18.20;99.90;;;;;;7286140;19;20186;-77
2023/08/01 01:55:34;;;;;;;8.67;3.43;;;18.10;99.90;;;;;;7306321;19;20188;-78
2023/08/01 01:58:01;;;;;;;11.73;3.00;;;18.10;99.90;;;;;;7284076;19;20680;-78
2023/08/01 02:00:26;;;;;;;11.20;4.20;;;18.20;99.90;;;;;;7284638;19;20200;-78
2023/08/01 02:02:52;;;;;;;10.87;3.50;;;18.20;99.90;;;;;;7283849;19;20200;-79
2023/08/01 02:05:18;;;;;;;10.43;3.90;;;18.20;99.90;;;;;;7284579;19;20183;-78
2023/08/01 02:07:44;;;;;;;12.37;4.00;;;18.20;99.90;;;;;;7283051;19;20574;-78
2023/08/01 02:10:10;;;;;;;12.47;4.20;;;18.20;99.90;;;;;;7282058;19;20214;-77
2023/08/01 02:12:35;;;;;;;12.47;4.10;;;18.20;99.90;;;;;;7305389;19;20193;-78
2023/08/01 02:15:02;;;;;;;12.97;3.93;;;18.10;99.90;;;;;;7283648;19;20184;-78
2023/08/01 02:17:27;;;;;;;11.40;4.10;;;18.00;99.90;;;;;;7282738;19;20222;-78
2023/08/01 02:19:53;;;;;;;13.93;4.30;;;18.10;99.90;;;;;;7283573;19;20192;-78
2023/08/01 02:22:19;;;;;;;11.53;4.00;;;18.10;99.90;;;;;;7282256;19;20189;-78
2023/08/01 02:24:45;;;;;;;11.10;4.03;;;18.00;99.90;;;;;;7283195;19;20251;-77
2023/08/01 02:27:10;;;;;;;13.13;4.73;;;18.10;99.90;;;;;;7283952;19;20857;-78
2023/08/01 02:29:36;;;;;;;18.47;5.07;;;18.00;99.90;;;;;;7303555;19;20192;-79
2023/08/01 02:32:02;;;;;;;15.87;4.97;;;18.00;99.90;;;;;;7284465;19;20185;-77
2023/08/01 02:34:28;;;;;;;15.67;4.43;;;18.00;99.90;;;;;;7283326;19;20220;-77
2023/08/01 02:36:53;;;;;;;20.17;4.80;;;18.00;99.90;;;;;;7284104;19;20187;-77
2023/08/01 02:39:19;;;;;;;13.37;4.73;;;18.00;99.90;;;;;;7281908;19;20196;-77
2023/08/01 02:41:45;;;;;;;16.47;5.43;;;18.00;99.90;;;;;;7282564;19;20205;-77
2023/08/01 02:44:11;;;;;;;15.70;5.20;;;18.00;99.90;;;;;;7282171;19;20197;-78
2023/08/01 02:46:36;;;;;;;13.77;4.90;;;18.10;99.90;;;;;;7305779;19;20192;-78
2023/08/01 02:49:02;;;;;;;12.13;4.63;;;18.10;99.90;;;;;;7282340;19;20288;-78
2023/08/01 02:51:28;;;;;;;18.97;5.57;;;18.10;99.90;;;;;;7281837;19;20214;-78
2023/08/01 02:53:54;;;;;;;15.57;4.93;;;18.10;99.90;;;;;;7283048;19;20189;-78
2023/08/01 02:56:19;;;;;;;14.13;4.87;;;18.20;99.90;;;;;;7283511;19;20189;-78
2023/08/01 02:58:45;;;;;;;15.57;5.20;;;18.10;99.90;;;;;;7281688;19;20655;-77
2023/08/01 03:01:11;;;;;;;20.30;5.63;;;18.10;99.90;;;;;;7279544;19;20207;-77
2023/08/01 03:03:37;;;;;;;16.30;5.67;;;18.10;99.90;;;;;;7293285;19;20299;-76
2023/08/01 03:06:03;;;;;;;15.77;5.50;;;18.10;99.90;;;;;;7300439;19;20188;-78
2023/08/01 03:08:29;;;;;;;14.43;5.37;;;18.10;99.90;;;;;;7282802;19;20192;-78
2023/08/01 03:10:55;;;;;;;18.77;5.63;;;18.00;99.90;;;;;;7282628;19;20268;-77
2023/08/01 03:13:21;;;;;;;20.70;5.50;;;18.00;99.90;;;;;;7280127;19;20252;-78
2023/08/01 03:15:50;;;;;;;20.77;5.63;;;18.00;99.90;;;;;;7280846;19;20184;-77
2023/08/01 03:18:16;;;;;;;17.53;5.77;;;17.90;99.90;;;;;;7281271;19;20209;-77
2023/08/01 03:20:41;;;;;;;17.23;5.30;;;17.80;99.90;;;;;;7286333;19;20286;-77
2023/08/01 03:23:07;;;;;;;18.30;5.30;;;17.80;99.90;;;;;;7303143;19;20198;-76
2023/08/01 03:25:33;;;;;;;17.30;5.63;;;17.90;99.90;;;;;;7304231;19;20196;-78
2023/08/01 03:27:59;;;;;;;19.17;5.13;;;17.90;99.90;;;;;;7288643;19;20200;-78
2023/08/01 03:30:24;;;;;;;16.17;5.60;;;17.90;99.90;;;;;;7287846;19;20194;-78
2023/08/01 03:32:51;;;;;;;14.63;5.10;;;17.80;99.90;;;;;;7289065;19;20185;-77
2023/08/01 03:35:16;;;;;;;17.67;5.87;;;17.90;99.90;;;;;;7289047;19;20205;-78
2023/08/01 03:37:42;;;;;;;18.37;5.83;;;17.90;99.90;;;;;;7286955;19;20309;-78
2023/08/01 03:40:10;;;;;;;17.23;5.40;;;18.00;99.90;;;;;;7297007;19;20189;-77
2023/08/01 03:42:37;;;;;;;18.67;5.50;;;18.10;99.90;;;;;;7308769;19;20674;-77
2023/08/01 03:45:04;;;;;;;22.57;6.47;;;18.00;99.90;;;;;;7287500;19;20192;-78
2023/08/01 03:47:29;;;;;;;19.60;5.70;;;18.00;99.90;;;;;;7287847;19;20579;-78
2023/08/01 03:49:55;;;;;;;16.67;5.43;;;18.00;99.90;;;;;;7288585;19;20199;-77
2023/08/01 03:52:21;;;;;;;18.17;5.93;;;18.10;99.90;;;;;;7286754;19;20193;-78
2023/08/01 03:54:48;;;;;;;18.73;6.33;;;18.10;99.90;;;;;;7288647;19;20186;-77
2023/08/01 03:57:14;;;;;;;19.27;6.13;;;18.00;99.90;;;;;;7286104;19;20195;-78
2023/08/01 03:59:40;;;;;;;16.67;5.90;;;17.90;99.90;;;;;;7286940;19;20271;-77
2023/08/01 04:02:05;;;;;;;17.33;5.90;;;17.80;99.90;;;;;;7306882;19;20217;-78
2023/08/01 04:04:31;;;;;;;17.30;5.93;;;17.80;99.90;;;;;;7285556;19;20196;-78
2023/08/01 04:06:57;;;;;;;19.73;5.90;;;17.90;99.90;;;;;;7286684;19;20201;-79
2023/08/01 04:09:23;;;;;;;16.17;5.73;;;17.90;99.90;;;;;;7286752;19;20188;-78
2023/08/01 04:11:48;;;;;;;20.90;6.60;;;17.80;99.90;;;;;;7287786;19;20285;-77
2023/08/01 04:14:14;;;;;;;21.57;6.13;;;17.80;99.90;;;;;;7285571;19;20199;-77
2023/08/01 04:16:40;;;;;;;18.87;6.13;;;17.80;99.90;;;;;;7285263;19;20180;-77
2023/08/01 04:19:06;;;;;;;20.40;5.80;;;17.80;99.90;;;;;;7309436;19;20562;-77
2023/08/01 04:21:31;;;;;;;16.40;5.90;;;17.80;99.90;;;;;;7285052;19;20193;-77
2023/08/01 04:23:57;;;;;;;19.37;6.07;;;17.60;99.90;;;;;;7286463;19;20209;-77
2023/08/01 04:26:23;;;;;;;15.57;6.30;;;17.60;99.90;;;;;;7284679;19;20189;-77
2023/08/01 04:28:48;;;;;;;21.73;6.50;;;17.40;99.90;;;;;;7286777;19;20884;-78
2023/08/01 04:31:15;;;;;;;22.13;6.67;;;17.40;99.90;;;;;;7284284;19;20226;-77
2023/08/01 04:33:40;;;;;;;20.17;6.30;;;17.40;99.90;;;;;;7284819;19;20218;-77
2023/08/01 04:36:06;;;;;;;20.80;6.10;;;17.50;99.90;;;;;;7306728;19;20195;-77
2023/08/01 04:38:32;;;;;;;19.20;5.80;;;17.50;99.90;;;;;;7285969;19;20201;-77
2023/08/01 04:40:57;;;;;;;17.57;5.63;;;17.40;99.90;;;;;;7286462;19;20189;-77
2023/08/01 04:43:23;;;;;;;18.87;5.87;;;17.40;99.90;;;;;;7284803;19;21582;-77
2023/08/01 04:45:49;;;;;;;18.57;5.97;;;17.50;99.90;;;;;;7285977;19;20577;-78
2023/08/01 04:48:14;;;;;;;19.07;5.67;;;17.60;99.90;;;;;;7283768;19;20260;-77
2023/08/01 04:50:40;;;;;;;17.77;5.77;;;17.70;99.90;;;;;;7283760;19;20197;-77
2023/08/01 04:53:06;;;;;;;19.23;5.93;;;17.70;99.90;;;;;;7308580;19;20696;-77
2023/08/01 04:55:32;;;;;;;17.60;5.87;;;17.80;99.90;;;;;;7283700;19;20193;-78
2023/08/01 04:57:58;;;;;;;18.27;5.60;;;17.80;99.90;;;;;;7283982;19;20192;-78
2023/08/01 05:00:23;;;;;;;22.43;6.30;;;17.90;99.90;;;;;;7284119;19;20189;-77
2023/08/01 05:02:49;;;;;;;21.13;5.83;;;17.70;99.90;;;;;;7283100;19;20228;-77
2023/08/01 05:05:16;;;;;;;20.23;5.47;;;17.80;99.90;;;;;;7283181;19;20181;-77
2023/08/01 05:07:42;;;;;;;19.77;6.17;;;17.90;99.90;;;;;;7281739;19;20216;-77
2023/08/01 05:10:08;;;;;;;18.70;5.60;;;18.00;99.90;;;;;;7295418;19;20188;-77
2023/08/01 05:12:33;;;;;;;16.97;5.23;;;17.90;99.90;;;;;;7302907;19;20199;-77
2023/08/01 05:14:59;;;;;;;15.77;5.30;;;17.80;99.90;;;;;;7284643;19;20198;-78
2023/08/01 05:17:25;;;;;;;16.03;5.40;;;17.80;99.90;;;;;;7285644;19;20197;-77
2023/08/01 05:19:51;;;;;;;16.50;5.40;;;18.00;99.90;;;;;;7285678;19;20226;-77
2023/08/01 05:22:16;;;;;;;21.63;5.33;;;18.20;99.90;;;;;;7284280;19;20184;-77
2023/08/01 05:24:42;;;;;;;21.77;5.47;;;18.00;99.90;;;;;;7285053;19;20185;-77
2023/08/01 05:27:08;;;;;;;15.77;5.57;;;18.10;99.90;;;;;;7294986;19;20188;-77
2023/08/01 05:29:33;;;;;;;20.20;5.33;;;18.10;99.90;;;;;;7302931;19;20670;-77
2023/08/01 05:31:59;;;;;;;17.30;5.63;;;18.10;99.90;;;;;;7286257;19;20276;-78
2023/08/01 05:34:25;;;;;;;18.63;6.13;;;18.20;99.90;;;;;;7284288;19;20193;-78
2023/08/01 05:36:50;;;;;;;17.50;5.67;;;18.00;99.90;;;;;;7284380;19;20189;-78
2023/08/01 05:39:16;;;;;;;16.03;5.67;;;18.10;99.90;;;;;;7283342;19;20192;-78
2023/08/01 05:41:43;;;;;;;13.00;5.30;;;18.00;99.90;;;;;;7283151;19;20190;-78
2023/08/01 05:44:08;;;;;;;16.93;5.40;;;18.10;99.90;;;;;;7287580;19;20518;-77
2023/08/01 05:46:34;;;;;;;21.50;5.70;;;18.00;99.90;;;;;;7305860;19;20256;-76
2023/08/01 05:49:00;;;;;;;18.57;5.83;;;18.10;99.90;;;;;;7283647;19;20552;-77
2023/08/01 05:51:26;;;;;;;18.50;5.97;;;17.90;99.90;;;;;;7284411;19;20181;-78
2023/08/01 05:53:51;;;;;;;16.80;5.47;;;18.10;99.90;;;;;;7284845;19;20193;-77
2023/08/01 05:56:17;;;;;;;17.50;5.93;;;18.30;99.90;;;;;;7281838;19;20211;-77
2023/08/01 05:58:43;;;;;;;15.33;4.93;;;18.40;99.90;;;;;;7282108;19;20196;-77
2023/08/01 06:01:11;;;;;;;17.67;5.17;;;18.40;99.90;;;;;;7287171;19;20552;-77
2023/08/01 06:03:38;;;;;;;16.07;5.30;;;18.40;99.90;;;;;;7300760;19;20226;-75
2023/08/01 06:06:04;;;;;;;14.77;4.53;;;18.50;99.90;;;;;;7302011;19;20189;-77
2023/08/01 06:08:30;;;;;;;20.13;5.60;;;18.40;99.90;;;;;;7282560;19;20193;-78
2023/08/01 06:10:56;;;;;;;17.83;5.00;;;18.40;99.90;;;;;;7284210;19;20190;-77
2023/08/01 06:13:21;;;;;;;18.00;5.10;;;18.70;99.90;;;;;;7283829;19;20193;-78
2023/08/01 06:15:47;;;;;;;17.93;5.13;;;18.70;99.90;;;;;;7284190;19;20181;-78
2023/08/01 06:18:13;;;;;;;16.37;4.97;;;19.20;99.90;;;;;;7284994;19;20222;-77
2023/08/01 06:20:39;;;;;;;18.07;4.73;;;19.80;99.90;;;;;;7292249;19;20637;-77
2023/08/01 06:23:04;;;;;;;17.53;4.20;;;20.20;99.90;;;;;;7305340;19;20269;-77
2023/08/01 06:25:30;;;;;;;12.53;4.13;;;20.40;99.90;;;;;;7282923;19;20186;-77
2023/08/01 06:27:56;;;;;;;19.37;4.67;;;20.60;99.90;;;;;;7278566;19;20217;-77
2023/08/01 06:30:22;;;;;;;13.40;4.40;;;20.40;99.90;;;;;;7280825;19;20191;-77
2023/08/01 06:32:47;;;;;;;16.73;4.80;;;20.00;99.90;;;;;;7282204;19;20187;-77
2023/08/01 06:35:13;;;;;;;18.33;4.73;;;19.80;99.90;;;;;;7282127;19;20181;-77
2023/08/01 06:37:39;;;;;;;14.93;4.37;;;20.00;99.90;;;;;;7280489;19;20194;-76
2023/08/01 06:40:05;;;;;;;14.30;4.87;;;20.20;99.90;;;;;;7302889;19;20180;-77
2023/08/01 06:42:31;;;;;;;17.93;5.10;;;20.30;99.90;;;;;;7281494;19;20195;-77
2023/08/01 06:44:57;;;;;;;15.90;4.83;;;20.00;99.90;;;;;;7282611;19;20266;-77
2023/08/01 06:47:22;;;;;;;19.37;4.40;;;20.00;99.90;;;;;;7281428;19;20183;-78
2023/08/01 06:49:48;;;;;;;14.73;4.77;;;20.00;99.90;;;;;;7282630;19;20200;-77
2023/08/01 06:52:14;;;;;;;22.93;4.77;;;20.40;99.90;;;;;;7282872;19;20179;-77
2023/08/01 06:54:39;;;;;;;16.70;4.30;;;21.20;99.90;;;;;;7284457;19;20647;-76
2023/08/01 06:57:06;;;;;;;15.60;4.57;;;21.70;99.90;;;;;;7312190;19;20188;-77
2023/08/01 06:59:32;;;;;;;13.17;4.30;;;21.80;99.90;;;;;;7291608;19;20191;-77
2023/08/01 07:01:58;;;;;;;13.60;5.10;;;22.50;99.90;;;;;;7289517;19;20199;-77
2023/08/01 07:04:23;;;;;;;16.60;4.67;;;21.90;99.90;;;;;;7292157;19;20191;-78
2023/08/01 07:06:49;;;;;;;13.57;4.13;;;21.40;99.90;;;;;;7294464;19;20196;-78
2023/08/01 07:09:15;;;;;;;13.90;4.20;;;21.70;99.90;;;;;;7294736;19;20193;-77
2023/08/01 07:11:41;;;;;;;18.57;4.40;;;22.00;99.90;;;;;;7293727;19;20272;-77
2023/08/01 07:14:06;;;;;;;15.10;4.03;;;22.40;99.90;;;;;;7318208;19;20197;-78
2023/08/01 07:16:32;;;;;;;14.47;4.80;;;22.40;99.90;;;;;;7296195;19;20323;-77
2023/08/01 07:19:00;;;;;;;18.70;4.43;;;22.20;99.90;;;;;;7291930;19;20193;-77
2023/08/01 07:21:26;;;;;;;15.87;4.40;;;22.50;99.90;;;;;;7288257;19;20193;-77
2023/08/01 07:23:51;;;;;;;17.73;4.73;;;22.10;99.90;;;;;;7289344;19;20199;-77
2023/08/01 07:26:17;;;;;;;14.13;4.20;;;21.50;99.90;;;;;;7289133;19;20195;-78
2023/08/01 07:28:43;;;;;;;16.93;4.43;;;21.70;99.90;;;;;;7288142;19;20233;-77
2023/08/01 07:31:09;;;;;;;14.40;4.60;;;22.00;99.90;;;;;;7292065;19;20694;-77
2023/08/01 07:33:36;;;;;;;15.40;4.10;;;22.10;99.90;;;;;;7311431;19;20187;-78
2023/08/01 07:36:03;;;;;;;17.77;4.50;;;22.20;99.90;;;;;;7288870;19;20217;-77
2023/08/01 07:38:28;;;;;;;16.37;4.70;;;21.70;99.90;;;;;;7289943;19;20342;-77
2023/08/01 07:40:55;;;;;;;17.77;4.23;;;21.40;99.90;;;;;;7288594;19;20215;-78
2023/08/01 07:43:20;;;;;;;18.10;4.33;;;21.40;99.90;;;;;;7289090;19;20212;-78
2023/08/01 07:45:46;;;;;;;14.13;3.97;;;21.60;99.90;;;;;;7289768;19;20709;-78
2023/08/01 07:48:12;;;;;;;15.23;4.23;;;22.40;99.90;;;;;;7289310;19;20563;-77
2023/08/01 07:50:38;;;;;;;16.13;3.87;;;23.00;99.90;;;;;;7298770;19;20888;-77
2023/08/01 07:53:04;;;;;;;10.80;3.80;;;23.70;99.90;;;;;;7303791;19;20203;-78
2023/08/01 07:55:34;;;;;;;14.47;3.73;;;23.80;99.90;;;;;;7288010;19;20291;-78
2023/08/01 07:57:59;;;;;;;13.07;3.60;;;24.40;99.90;;;;;;7286233;19;21781;-78
2023/08/01 08:00:25;;;;;;;14.03;3.47;;;25.20;99.90;;;;;;7287418;19;20197;-78
2023/08/01 08:02:51;;;;;;;13.77;3.57;;;26.40;99.90;;;;;;7286721;19;20375;-77
2023/08/01 08:05:17;;;;;;;12.88;3.58;;;28.20;99.90;;;;;;7287166;19;20189;-77
2023/08/01 08:07:42;;;;;;;12.77;3.70;;;30.00;99.90;;;;;;7285818;19;20228;-77
2023/08/01 08:10:08;;;;;;;16.00;3.88;;;30.40;99.90;;;;;;7298084;19;20971;-77
2023/08/01 08:12:34;;;;;;;13.98;3.50;;;30.40;99.90;;;;;;7306010;19;20197;-78
2023/08/01 08:14:59;;;;;;;11.88;3.67;;;27.90;99.90;;;;;;7287664;19;20205;-77
2023/08/01 08:17:25;;;;;;;10.60;3.10;;;26.20;99.90;;;;;;7287765;19;20200;-79
2023/08/01 08:19:51;;;;;;;11.20;3.53;;;24.80;99.90;;;;;;7288117;19;20544;-79
2023/08/01 08:22:16;;;;;;;10.80;3.20;;;23.00;99.90;;;;;;7285124;19;20305;-78
2023/08/01 08:24:42;;;;;;;13.10;3.53;;;22.50;99.90;;;;;;7285560;19;20201;-78
2023/08/01 08:27:08;;;;;;;13.50;3.60;;;23.10;99.90;;;;;;7299400;19;20193;-77
2023/08/01 08:29:33;;;;;;;9.60;2.93;;;24.60;99.90;;;;;;7302282;19;20177;-78
2023/08/01 08:31:59;;;;;;;11.60;3.10;;;26.00;99.90;;;;;;7285873;19;20205;-79
2023/08/01 08:34:25;;;;;;;9.50;2.90;;;26.70;99.90;;;;;;7284724;19;20274;-78
2023/08/01 08:36:51;;;;;;;11.65;2.90;;;27.60;99.90;;;;;;7285856;19;20181;-80
2023/08/01 08:39:18;;;;;;;9.73;3.33;;;28.90;99.90;;;;;;7287196;19;20196;-78
2023/08/01 08:41:48;;;;;;;10.98;2.97;;;28.30;99.90;;;;;;7286412;19;20173;-78
2023/08/01 08:44:16;;;;;;;10.60;3.00;;;27.90;99.90;;;;;;7284466;19;20185;-78
2023/08/01 08:46:44;;;;;;;11.90;2.75;;;29.20;99.90;;;;;;7288459;19;20185;-78
2023/08/01 08:49:10;;;;;;;12.77;3.10;;;29.30;99.90;;;;;;7287550;19;20208;-79
2023/08/01 08:51:41;;;;;;;8.05;2.58;;;29.50;99.90;;;;;;7309971;19;20188;-79
2023/08/01 08:54:08;;;;;;;10.32;2.90;;;29.50;99.90;;;;;;7288232;19;20544;-79
2023/08/01 08:56:35;;;;;;;10.55;2.80;;;31.50;99.90;;;;;;7286299;19;20260;-80
2023/08/01 08:59:01;;;;;;;9.77;2.60;;;31.20;99.90;;;;;;7287177;19;20192;-79
2023/08/01 09:01:27;;;;;;;10.30;2.50;;;29.70;99.90;;;;;;7287428;19;22012;-79
2023/08/01 09:03:55;;;;;;;9.88;2.55;;;27.50;99.90;;;;;;7285462;19;21059;-80
2023/08/01 09:06:25;;;;;;;12.38;2.95;;;27.60;99.90;;;;;;7288038;19;20196;-78
2023/08/01 09:08:55;;;;;;;8.10;2.50;;;27.40;99.90;;;;;;7285638;19;20303;-79
2023/08/01 09:11:21;;;;;;;8.73;2.50;;;28.80;99.90;;;;;;7286025;19;20193;-79
2023/08/01 09:13:50;;;;;;;11.35;2.55;;;29.70;99.90;;;;;;7285933;19;20895;-79
2023/08/01 09:16:16;;;;;;;8.25;2.38;;;30.50;99.90;;;;;;7283782;19;20185;-79
2023/08/01 09:18:51;;;;;;;10.07;2.63;;;29.90;99.90;;;;;;7283395;19;20272;-78
2023/08/01 09:21:23;;;;;;;10.05;2.63;;;28.80;99.90;;;;;;7284840;19;20691;-79
2023/08/01 09:23:49;;;;;;;9.48;2.50;;;29.50;99.90;;;;;;7284745;19;20197;-79
2023/08/01 09:26:16;;;;;;;12.70;2.55;;;28.90;99.90;;;;;;7285587;19;20184;-79
2023/08/01 09:28:41;;;;;;;11.30;2.47;;;27.80;99.90;;;;;;7284840;19;20588;-79
2023/08/01 09:31:08;;;;;;;9.82;2.58;;;26.30;99.90;;;;;;7306128;19;20199;-77
2023/08/01 09:33:43;;;;;;;10.13;2.90;;;25.90;99.90;;;;;;7298425;19;20677;-79
2023/08/01 09:36:09;;;;;;;8.47;2.30;;;25.60;99.90;;;;;;7273043;19;20203;-78
2023/08/01 09:38:36;;;;;;;11.20;2.50;;;24.70;99.90;;;;;;7307588;19;20652;-79
2023/08/01 09:41:03;;;;;;;12.53;2.43;;;24.30;99.90;;;;;;7283917;19;20933;-78
2023/08/01 09:43:36;;;;;;;11.50;2.87;;;23.90;99.90;;;;;;7284817;19;20280;-78
2023/08/01 09:46:03;;;;;;;10.03;2.40;;;23.50;99.90;;;;;;7283849;19;20184;-78
2023/08/01 09:48:30;;;;;;;9.87;2.40;;;23.60;99.90;;;;;;7283347;19;20253;-78
2023/08/01 09:51:07;;;;;;;11.90;2.33;;;23.50;99.90;;;;;;7284453;19;20648;-78
2023/08/01 09:53:34;;;;;;;11.73;2.53;;;23.60;99.90;;;;;;7283144;19;20193;-78
2023/08/01 09:56:03;;;;;;;10.57;2.00;;;24.20;99.90;;;;;;7280330;19;20193;-78
2023/08/01 09:58:36;;;;;;;11.17;2.40;;;25.10;99.90;;;;;;7283316;19;20182;-78
2023/08/01 10:01:02;;;;;;;7.43;2.17;;;25.00;99.90;;;;;;7284543;19;20529;-78
2023/08/01 10:03:29;;;;;;;11.00;2.43;;;25.00;99.90;;;;;;7283773;19;20229;-78
2023/08/01 10:05:56;;;;;;;9.53;2.40;;;25.40;99.90;;;;;;7284518;19;20193;-78
2023/08/01 10:08:23;;;;;;;8.23;2.40;;;27.70;99.90;;;;;;7281746;19;20558;-78
2023/08/01 10:10:48;;;;;;;9.98;2.20;;;27.90;99.90;;;;;;7282621;19;20240;-78
2023/08/01 10:13:15;;;;;;;7.93;2.25;;;28.10;99.90;;;;;;7283064;19;20196;-78
2023/08/01 10:15:41;;;;;;;12.45;2.63;;;28.20;99.90;;;;;;7281865;19;20185;-78
2023/08/01 10:18:09;;;;;;;9.77;2.40;;;27.50;99.90;;;;;;7296469;19;20180;-78
2023/08/01 10:20:37;;;;;;;11.38;2.67;;;26.80;99.90;;;;;;7305402;19;20189;-78
2023/08/01 10:23:03;;;;;;;10.40;2.53;;;27.40;99.90;;;;;;7282047;19;20181;-78
2023/08/01 10:25:30;;;;;;;9.88;2.47;;;27.90;99.90;;;;;;7284796;19;20189;-78
2023/08/01 10:28:00;;;;;;;12.90;2.50;;;28.40;99.90;;;;;;7282194;19;20193;-78
2023/08/01 10:30:27;;;;;;;11.00;2.30;;;28.90;99.90;;;;;;7281252;19;20188;-78
2023/08/01 10:32:56;;;;;;;11.88;2.20;;;28.10;99.90;;;;;;7283449;19;20215;-78
2023/08/01 10:35:39;;;;;;;10.77;1.92;;;28.00;99.90;;;;;;7283352;19;20192;-78
2023/08/01 10:38:11;;;;;;;6.15;1.77;;;28.50;99.90;;;;;;7282548;19;20184;-78
2023/08/01 10:40:39;;;;;;;8.32;2.30;;;27.60;99.90;;;;;;7283980;19;20185;-78
2023/08/01 10:43:05;;;;;;;10.13;2.50;;;27.70;99.90;;;;;;7282612;19;20649;-79
2023/08/01 10:45:31;;;;;;;9.90;2.33;;;28.40;99.90;;;;;;7282366;19;20188;-78
2023/08/01 10:48:15;;;;;;;8.88;2.40;;;28.70;99.90;;;;;;7280719;19;20209;-78
2023/08/01 10:50:41;;;;;;;10.02;2.03;;;28.50;99.90;;;;;;7259421;19;20604;-78
2023/08/01 10:53:10;;;;;;;7.38;1.80;;;27.00;99.90;;;;;;7305851;19;20185;-78
2023/08/01 10:55:47;;;;;;;9.00;2.20;;;26.20;99.90;;;;;;7281497;19;20193;-78
2023/08/01 10:58:13;;;;;;;6.82;1.80;;;26.50;99.90;;;;;;7281638;19;20228;-79
2023/08/01 11:00:39;;;;;;;5.38;1.40;;;27.10;99.90;;;;;;7295381;19;20712;-77
2023/08/01 11:03:05;;;;;;;8.55;1.60;;;28.60;99.90;;;;;;7301234;19;20201;-78
2023/08/01 11:05:30;;;;;;;8.98;1.60;;;31.30;99.90;;;;;;7278665;19;20216;-79
2023/08/01 11:07:58;;;;;;;6.20;1.70;;;30.50;96.40;;;;;;7278723;19;20207;-77
2023/08/01 11:10:31;;;;;;;8.02;1.70;;;29.90;99.90;;;;;;7276114;19;20955;-78
2023/08/01 11:12:58;;;;;;;7.57;1.50;;;29.70;99.90;;;;;;7277500;19;20213;-77
2023/08/01 11:15:24;;;;;;;9.00;1.63;;;27.50;99.90;;;;;;7277769;19;20205;-77
2023/08/01 11:17:52;;;;;;;9.57;1.80;;;26.10;99.90;;;;;;7277782;19;20672;-78
2023/08/01 11:20:20;;;;;;;8.68;1.35;;;26.40;99.90;;;;;;7279454;19;20308;-77
2023/08/01 11:23:04;;;;;;;7.28;1.55;;;27.40;99.90;;;;;;7279261;19;20880;-77
2023/08/01 11:25:35;;;;;;;8.57;1.65;;;29.40;99.90;;;;;;7277601;19;20200;-77
2023/08/01 11:28:09;;;;;;;6.78;1.48;;;29.80;99.90;;;;;;7276895;19;20193;-75
2023/08/01 11:30:36;;;;;;;6.50;1.73;;;30.90;99.90;;;;;;7277035;19;20790;-76
2023/08/01 11:33:12;;;;;;;9.48;1.90;;;29.80;98.40;;;;;;7279366;19;20699;-77
2023/08/01 11:35:39;;;;;;;8.90;1.92;;;30.50;99.90;;;;;;7276337;19;20196;-75
2023/08/01 11:38:06;;;;;;;6.55;1.80;;;32.40;96.30;;;;;;7297564;19;20200;-77
2023/08/01 11:40:32;;;;;;;5.68;1.65;;;32.40;97.50;;;;;;7275544;19;20803;-77
2023/08/01 11:42:58;;;;;;;8.60;1.60;;;31.70;92.20;;;;;;7283777;19;20225;-76
2023/08/01 11:45:24;;;;;;;9.65;1.70;;;30.00;97.90;;;;;;7284270;19;20640;-77
2023/08/01 11:47:50;;;;;;;8.80;1.88;;;30.90;97.60;;;;;;7284106;19;20208;-76
2023/08/01 11:50:23;;;;;;;8.18;1.48;;;29.90;94.20;;;;;;7280932;19;20193;-77
2023/08/01 11:52:48;;;;;;;8.27;1.83;;;29.10;95.60;;;;;;7283824;19;20229;-76
2023/08/01 11:55:26;;;;;;;7.25;1.60;;;28.60;97.30;;;;;;7285250;19;20728;-77
2023/08/01 11:57:58;;;;;;;8.38;1.75;;;30.00;99.60;;;;;;7284998;19;20200;-77
2023/08/01 12:00:27;;;;;;;7.47;1.67;;;30.70;93.90;;;;;;7281647;19;20193;-77
2023/08/01 12:03:03;;;;;;;8.85;1.90;;;29.00;95.40;;;;;;7281022;19;20897;-77
2023/08/01 12:05:29;;;;;;;12.52;1.60;;;28.10;97.80;;;;;;7285713;19;20185;-77
2023/08/01 12:08:14;;;;;;;6.05;1.50;;;27.30;99.90;;;;;;7285775;19;20193;-78
2023/08/01 12:10:44;;;;;;;6.30;1.60;;;27.60;99.90;;;;;;7260883;19;20268;-77
2023/08/01 12:13:23;;;;;;;7.03;1.42;;;28.30;99.90;;;;;;7281259;19;20197;-76
2023/08/01 12:15:53;;;;;;;6.57;1.60;;;28.50;98.90;;;;;;7282802;19;20221;-77
2023/08/01 12:18:29;;;;;;;6.53;1.60;;;29.70;99.90;;;;;;7283251;19;20200;-78
2023/08/01 12:20:55;;;;;;;5.93;1.48;;;30.20;97.50;;;;;;7277369;19;20203;-77
2023/08/01 12:23:21;;;;;;;9.10;1.60;;;29.60;94.80;;;;;;7278849;19;20184;-78
2023/08/01 12:25:47;;;;;;;6.30;1.35;;;28.40;95.30;;;;;;7282773;19;20210;-77
2023/08/01 12:28:14;;;;;;;5.75;1.45;;;27.40;99.80;;;;;;7281228;19;20264;-77
2023/08/01 12:30:41;;;;;;;5.07;1.23;;;27.20;99.90;;;;;;7283812;19;20189;-77
2023/08/01 12:33:07;;;;;;;6.45;1.50;;;27.90;99.90;;;;;;7303872;19;20202;-78
2023/08/01 12:35:33;;;;;;;7.80;1.45;;;27.90;99.90;;;;;;7282402;19;20531;-78
2023/08/01 12:37:59;;;;;;;6.18;1.40;;;27.50;99.90;;;;;;7282191;19;20186;-79